sensor_id;sensor_type;location;lat;lon;timestamp;pressure;altitude;pressure_sealevel;temperature;humidity
34237;BME280;20501;45.956;13.632;2023-03-13T00:01:24;100905.84;;;9.23;55.58
34237;BME280;20501;45.956;13.632;2023-03-13T00:03:50;100920.28;;;9.44;52.57
34237;BME280;20501;45.956;13.632;2023-03-13T00:06:17;100917.41;;;8.19;59.30
34237;BME280;20501;45.956;13.632;2023-03-13T00:08:43;100913.78;;;8.08;56.53
34237;BME280;20501;45.956;13.632;2023-03-13T00:11:13;100916.16;;;9.06;56.29
34237;BME280;20501;45.956;13.632;2023-03-13T00:13:39;100919.69;;;9.29;53.21
34237;BME280;20501;45.956;13.632;2023-03-13T00:16:08;100909.59;;;9.66;55.53
34237;BME280;20501;45.956;13.632;2023-03-13T00:18:34;100907.25;;;8.47;53.89
34237;BME280;20501;45.956;13.632;2023-03-13T00:21:01;100907.97;;;8.49;59.45
34237;BME280;20501;45.956;13.632;2023-03-13T00:23:27;100914.50;;;8.81;57.54
34237;BME280;20501;45.956;13.632;2023-03-13T00:25:57;100910.84;;;8.82;57.93
34237;BME280;20501;45.956;13.632;2023-03-13T00:28:22;100910.66;;;8.14;54.80
34237;BME280;20501;45.956;13.632;2023-03-13T00:30:48;100912.34;;;9.09;58.61
34237;BME280;20501;45.956;13.632;2023-03-13T00:33:13;100906.81;;;9.22;57.62
34237;BME280;20501;45.956;13.632;2023-03-13T00:35:39;100905.44;;;9.94;55.34
34237;BME280;20501;45.956;13.632;2023-03-13T00:38:04;100915.19;;;11.03;52.28
34237;BME280;20501;45.956;13.632;2023-03-13T00:40:29;100916.44;;;11.70;51.39
34237;BME280;20501;45.956;13.632;2023-03-13T00:42:55;100917.34;;;12.00;48.35
34237;BME280;20501;45.956;13.632;2023-03-13T00:45:20;100914.47;;;11.92;50.89
34237;BME280;20501;45.956;13.632;2023-03-13T00:47:46;100908.66;;;12.16;50.37
34237;BME280;20501;45.956;13.632;2023-03-13T00:50:11;100911.22;;;11.98;48.10
34237;BME280;20501;45.956;13.632;2023-03-13T00:52:37;100917.81;;;10.29;53.48
34237;BME280;20501;45.956;13.632;2023-03-13T00:55:02;100916.44;;;10.14;54.11
34237;BME280;20501;45.956;13.632;2023-03-13T00:57:28;100914.59;;;10.99;53.57
34237;BME280;20501;45.956;13.632;2023-03-13T00:59:53;100914.13;;;10.63;54.54
34237;BME280;20501;45.956;13.632;2023-03-13T01:02:19;100914.78;;;11.38;52.70
34237;BME280;20501;45.956;13.632;2023-03-13T01:04:44;100904.50;;;11.32;51.90
34237;BME280;20501;45.956;13.632;2023-03-13T01:07:10;100902.53;;;10.72;49.76
34237;BME280;20501;45.956;13.632;2023-03-13T01:09:35;100901.09;;;9.82;55.35
34237;BME280;20501;45.956;13.632;2023-03-13T01:12:00;100895.56;;;11.01;51.50
34237;BME280;20501;45.956;13.632;2023-03-13T01:14:26;100899.84;;;11.13;48.62
34237;BME280;20501;45.956;13.632;2023-03-13T01:16:51;100897.56;;;9.70;50.17
34237;BME280;20501;45.956;13.632;2023-03-13T01:19:18;100892.38;;;9.78;50.10
34237;BME280;20501;45.956;13.632;2023-03-13T01:21:44;100894.94;;;8.67;52.48
34237;BME280;20501;45.956;13.632;2023-03-13T01:24:10;100894.94;;;9.02;55.50
34237;BME280;20501;45.956;13.632;2023-03-13T01:26:36;100889.56;;;8.43;55.04
34237;BME280;20501;45.956;13.632;2023-03-13T01:29:01;100896.28;;;7.78;55.57
34237;BME280;20501;45.956;13.632;2023-03-13T01:31:30;100908.22;;;7.49;57.88
34237;BME280;20501;45.956;13.632;2023-03-13T01:33:58;100907.38;;;7.97;56.27
34237;BME280;20501;45.956;13.632;2023-03-13T01:36:25;100901.84;;;7.87;57.78
34237;BME280;20501;45.956;13.632;2023-03-13T01:38:53;100912.28;;;7.55;56.55
34237;BME280;20501;45.956;13.632;2023-03-13T01:41:20;100907.44;;;8.44;56.53
34237;BME280;20501;45.956;13.632;2023-03-13T01:43:46;100915.94;;;7.54;57.05
34237;BME280;20501;45.956;13.632;2023-03-13T01:46:19;100909.34;;;7.95;57.83
34237;BME280;20501;45.956;13.632;2023-03-13T01:51:15;100901.53;;;8.75;54.38
34237;BME280;20501;45.956;13.632;2023-03-13T01:53:44;100904.38;;;8.85;54.00
34237;BME280;20501;45.956;13.632;2023-03-13T01:56:19;100894.66;;;8.24;54.51
34237;BME280;20501;45.956;13.632;2023-03-13T01:58:48;100895.53;;;8.71;54.39
34237;BME280;20501;45.956;13.632;2023-03-13T02:01:15;100890.81;;;9.64;55.82
34237;BME280;20501;45.956;13.632;2023-03-13T02:03:42;100884.69;;;7.77;54.98
34237;BME280;20501;45.956;13.632;2023-03-13T02:06:08;100880.16;;;7.78;55.25
34237;BME280;20501;45.956;13.632;2023-03-13T02:08:44;100878.41;;;7.15;57.31
34237;BME280;20501;45.956;13.632;2023-03-13T02:11:56;100876.47;;;7.17;57.08
34237;BME280;20501;45.956;13.632;2023-03-13T02:14:01;100880.16;;;9.95;55.49
34237;BME280;20501;45.956;13.632;2023-03-13T02:16:27;100878.38;;;9.84;54.38
34237;BME280;20501;45.956;13.632;2023-03-13T02:18:53;100876.44;;;9.20;55.04
34237;BME280;20501;45.956;13.632;2023-03-13T02:21:27;100871.44;;;8.34;56.76
34237;BME280;20501;45.956;13.632;2023-03-13T02:24:19;100879.28;;;10.06;54.89
34237;BME280;20501;45.956;13.632;2023-03-13T02:26:46;100873.81;;;10.81;52.61
34237;BME280;20501;45.956;13.632;2023-03-13T02:29:12;100870.66;;;10.45;54.02
34237;BME280;20501;45.956;13.632;2023-03-13T02:31:45;100869.38;;;11.01;52.06
34237;BME280;20501;45.956;13.632;2023-03-13T02:34:13;100851.78;;;11.17;49.12
34237;BME280;20501;45.956;13.632;2023-03-13T02:36:40;100850.78;;;9.37;50.60
34237;BME280;20501;45.956;13.632;2023-03-13T02:39:07;100857.03;;;9.81;54.43
34237;BME280;20501;45.956;13.632;2023-03-13T02:41:34;100842.91;;;9.89;52.08
34237;BME280;20501;45.956;13.632;2023-03-13T02:43:59;100845.88;;;9.53;54.06
34237;BME280;20501;45.956;13.632;2023-03-13T02:46:25;100840.13;;;10.54;48.86
34237;BME280;20501;45.956;13.632;2023-03-13T02:48:53;100839.50;;;10.72;52.63
34237;BME280;20501;45.956;13.632;2023-03-13T02:51:30;100848.59;;;11.02;49.13
34237;BME280;20501;45.956;13.632;2023-03-13T02:54:05;100849.34;;;11.13;51.96
34237;BME280;20501;45.956;13.632;2023-03-13T02:56:33;100845.75;;;11.44;51.73
34237;BME280;20501;45.956;13.632;2023-03-13T02:58:59;100860.34;;;10.38;52.23
34237;BME280;20501;45.956;13.632;2023-03-13T03:01:25;100856.41;;;10.10;54.32
34237;BME280;20501;45.956;13.632;2023-03-13T03:03:50;100857.00;;;9.93;50.59
34237;BME280;20501;45.956;13.632;2023-03-13T03:06:16;100851.91;;;10.11;53.96
34237;BME280;20501;45.956;13.632;2023-03-13T03:08:42;100846.16;;;9.27;54.45
34237;BME280;20501;45.956;13.632;2023-03-13T03:11:08;100840.25;;;7.96;55.58
34237;BME280;20501;45.956;13.632;2023-03-13T03:13:34;100838.31;;;7.49;56.70
34237;BME280;20501;45.956;13.632;2023-03-13T03:16:08;100839.75;;;7.42;61.12
34237;BME280;20501;45.956;13.632;2023-03-13T03:18:35;100846.38;;;7.73;57.83
34237;BME280;20501;45.956;13.632;2023-03-13T03:21:01;100837.31;;;7.87;59.19
34237;BME280;20501;45.956;13.632;2023-03-13T03:23:26;100846.78;;;8.16;55.79
34237;BME280;20501;45.956;13.632;2023-03-13T03:25:52;100854.41;;;8.92;57.89
34237;BME280;20501;45.956;13.632;2023-03-13T03:28:17;100854.63;;;9.23;56.48
34237;BME280;20501;45.956;13.632;2023-03-13T03:30:42;100858.03;;;9.48;55.12
34237;BME280;20501;45.956;13.632;2023-03-13T03:33:08;100853.38;;;9.50;52.60
34237;BME280;20501;45.956;13.632;2023-03-13T03:35:33;100849.50;;;8.74;52.10
34237;BME280;20501;45.956;13.632;2023-03-13T03:38:02;100851.84;;;10.22;54.01
34237;BME280;20501;45.956;13.632;2023-03-13T03:40:28;100853.84;;;9.43;53.16
34237;BME280;20501;45.956;13.632;2023-03-13T03:42:54;100850.06;;;7.97;54.83
34237;BME280;20501;45.956;13.632;2023-03-13T03:45:20;100851.97;;;8.30;54.14
34237;BME280;20501;45.956;13.632;2023-03-13T03:47:45;100854.22;;;9.83;50.65
34237;BME280;20501;45.956;13.632;2023-03-13T03:50:11;100855.00;;;8.95;52.38
34237;BME280;20501;45.956;13.632;2023-03-13T03:52:37;100853.88;;;10.09;53.20
34237;BME280;20501;45.956;13.632;2023-03-13T03:55:02;100854.09;;;9.84;54.71
34237;BME280;20501;45.956;13.632;2023-03-13T03:57:28;100851.44;;;10.27;53.79
34237;BME280;20501;45.956;13.632;2023-03-13T03:59:54;100848.41;;;10.62;50.66
34237;BME280;20501;45.956;13.632;2023-03-13T04:02:19;100851.34;;;8.96;51.86
34237;BME280;20501;45.956;13.632;2023-03-13T04:04:44;100857.88;;;8.00;54.73
34237;BME280;20501;45.956;13.632;2023-03-13T04:07:10;100857.25;;;8.43;54.82
34237;BME280;20501;45.956;13.632;2023-03-13T04:09:35;100863.16;;;7.53;57.20
34237;BME280;20501;45.956;13.632;2023-03-13T04:12:01;100859.44;;;7.67;55.70
34237;BME280;20501;45.956;13.632;2023-03-13T04:14:26;100863.09;;;8.26;58.38
34237;BME280;20501;45.956;13.632;2023-03-13T04:16:51;100862.56;;;8.09;56.28
34237;BME280;20501;45.956;13.632;2023-03-13T04:19:17;100859.28;;;8.17;57.42
34237;BME280;20501;45.956;13.632;2023-03-13T04:21:42;100860.25;;;8.16;56.96
34237;BME280;20501;45.956;13.632;2023-03-13T04:24:08;100866.91;;;7.13;58.04
34237;BME280;20501;45.956;13.632;2023-03-13T04:26:33;100875.56;;;7.05;58.99
34237;BME280;20501;45.956;13.632;2023-03-13T04:28:59;100873.72;;;7.06;61.02
34237;BME280;20501;45.956;13.632;2023-03-13T04:31:24;100877.84;;;6.60;60.78
34237;BME280;20501;45.956;13.632;2023-03-13T04:33:49;100879.03;;;7.32;61.33
34237;BME280;20501;45.956;13.632;2023-03-13T04:36:15;100869.00;;;7.47;60.12
34237;BME280;20501;45.956;13.632;2023-03-13T04:38:40;100881.28;;;6.75;59.18
34237;BME280;20501;45.956;13.632;2023-03-13T04:41:06;100873.00;;;7.41;57.49
34237;BME280;20501;45.956;13.632;2023-03-13T04:43:31;100881.91;;;6.78;60.31
34237;BME280;20501;45.956;13.632;2023-03-13T04:45:56;100878.44;;;7.77;56.79
34237;BME280;20501;45.956;13.632;2023-03-13T04:48:22;100881.03;;;6.91;58.41
34237;BME280;20501;45.956;13.632;2023-03-13T04:50:47;100875.47;;;7.31;57.68
34237;BME280;20501;45.956;13.632;2023-03-13T04:53:14;100875.97;;;7.12;58.45
34237;BME280;20501;45.956;13.632;2023-03-13T04:55:39;100870.34;;;7.15;58.78
34237;BME280;20501;45.956;13.632;2023-03-13T04:58:05;100873.75;;;6.93;57.79
34237;BME280;20501;45.956;13.632;2023-03-13T05:00:31;100869.09;;;7.94;59.71
34237;BME280;20501;45.956;13.632;2023-03-13T05:02:56;100860.53;;;9.05;57.42
34237;BME280;20501;45.956;13.632;2023-03-13T05:05:22;100861.56;;;7.99;56.41
34237;BME280;20501;45.956;13.632;2023-03-13T05:07:47;100866.63;;;7.18;57.37
34237;BME280;20501;45.956;13.632;2023-03-13T05:10:13;100868.44;;;7.54;56.38
34237;BME280;20501;45.956;13.632;2023-03-13T05:12:38;100875.53;;;7.80;58.25
34237;BME280;20501;45.956;13.632;2023-03-13T05:15:04;100874.03;;;8.35;57.65
34237;BME280;20501;45.956;13.632;2023-03-13T05:17:29;100874.63;;;8.39;58.44
34237;BME280;20501;45.956;13.632;2023-03-13T05:19:55;100872.38;;;9.14;55.12
34237;BME280;20501;45.956;13.632;2023-03-13T05:22:20;100877.91;;;8.31;54.36
34237;BME280;20501;45.956;13.632;2023-03-13T05:24:46;100882.09;;;7.75;57.54
34237;BME280;20501;45.956;13.632;2023-03-13T05:27:11;100889.72;;;7.07;57.55
34237;BME280;20501;45.956;13.632;2023-03-13T05:29:36;100882.28;;;7.61;60.16
34237;BME280;20501;45.956;13.632;2023-03-13T05:32:02;100879.53;;;7.74;57.75
34237;BME280;20501;45.956;13.632;2023-03-13T05:34:27;100891.38;;;7.34;59.52
34237;BME280;20501;45.956;13.632;2023-03-13T05:36:53;100886.56;;;7.39;59.56
34237;BME280;20501;45.956;13.632;2023-03-13T05:39:18;100884.94;;;8.10;54.80
34237;BME280;20501;45.956;13.632;2023-03-13T05:41:51;100875.44;;;8.28;54.70
34237;BME280;20501;45.956;13.632;2023-03-13T05:44:16;100876.41;;;9.86;55.17
34237;BME280;20501;45.956;13.632;2023-03-13T05:46:42;100871.44;;;9.70;51.14
34237;BME280;20501;45.956;13.632;2023-03-13T05:49:07;100877.06;;;10.32;52.55
34237;BME280;20501;45.956;13.632;2023-03-13T05:51:32;100883.66;;;10.18;53.72
34237;BME280;20501;45.956;13.632;2023-03-13T05:53:58;100876.34;;;10.73;51.90
34237;BME280;20501;45.956;13.632;2023-03-13T05:56:23;100883.81;;;10.05;52.08
34237;BME280;20501;45.956;13.632;2023-03-13T05:58:49;100877.03;;;9.35;51.51
34237;BME280;20501;45.956;13.632;2023-03-13T06:01:14;100883.03;;;10.47;54.10
34237;BME280;20501;45.956;13.632;2023-03-13T06:03:40;100892.97;;;10.99;49.05
34237;BME280;20501;45.956;13.632;2023-03-13T06:06:05;100891.63;;;11.55;50.83
34237;BME280;20501;45.956;13.632;2023-03-13T06:08:31;100893.50;;;11.84;50.05
34237;BME280;20501;45.956;13.632;2023-03-13T06:11:01;100904.41;;;10.60;51.97
34237;BME280;20501;45.956;13.632;2023-03-13T06:13:27;100902.00;;;11.50;50.98
34237;BME280;20501;45.956;13.632;2023-03-13T06:15:54;100910.88;;;11.31;50.35
34237;BME280;20501;45.956;13.632;2023-03-13T06:18:20;100904.47;;;9.95;52.02
34237;BME280;20501;45.956;13.632;2023-03-13T06:20:48;100907.47;;;10.13;53.16
34237;BME280;20501;45.956;13.632;2023-03-13T06:23:14;100910.63;;;9.19;54.53
34237;BME280;20501;45.956;13.632;2023-03-13T06:25:39;100913.56;;;9.05;52.90
34237;BME280;20501;45.956;13.632;2023-03-13T06:28:05;100914.81;;;9.01;53.16
34237;BME280;20501;45.956;13.632;2023-03-13T06:30:30;100921.00;;;8.78;54.12
34237;BME280;20501;45.956;13.632;2023-03-13T06:32:57;100914.84;;;7.94;57.87
34237;BME280;20501;45.956;13.632;2023-03-13T06:35:23;100917.47;;;9.23;56.42
34237;BME280;20501;45.956;13.632;2023-03-13T06:37:48;100919.13;;;7.96;55.21
34237;BME280;20501;45.956;13.632;2023-03-13T06:40:14;100932.66;;;8.79;54.85
34237;BME280;20501;45.956;13.632;2023-03-13T06:42:39;100936.19;;;8.79;57.64
34237;BME280;20501;45.956;13.632;2023-03-13T06:45:05;100940.09;;;9.78;52.11
34237;BME280;20501;45.956;13.632;2023-03-13T06:47:31;100938.28;;;10.11;53.46
34237;BME280;20501;45.956;13.632;2023-03-13T06:49:57;100947.88;;;9.25;55.24
34237;BME280;20501;45.956;13.632;2023-03-13T06:52:22;100951.06;;;9.53;54.64
34237;BME280;20501;45.956;13.632;2023-03-13T06:54:48;100953.19;;;11.01;52.21
34237;BME280;20501;45.956;13.632;2023-03-13T06:57:13;100955.22;;;11.09;52.32
34237;BME280;20501;45.956;13.632;2023-03-13T06:59:39;100951.59;;;10.77;50.70
34237;BME280;20501;45.956;13.632;2023-03-13T07:02:05;100944.09;;;9.05;52.61
34237;BME280;20501;45.956;13.632;2023-03-13T07:04:31;100944.69;;;9.43;56.44
34237;BME280;20501;45.956;13.632;2023-03-13T07:06:56;100944.00;;;9.73;54.94
34237;BME280;20501;45.956;13.632;2023-03-13T07:09:22;100945.50;;;9.66;54.07
34237;BME280;20501;45.956;13.632;2023-03-13T07:11:47;100946.94;;;10.58;53.84
34237;BME280;20501;45.956;13.632;2023-03-13T07:14:13;100944.75;;;10.94;52.80
34237;BME280;20501;45.956;13.632;2023-03-13T07:16:38;100938.94;;;11.71;50.85
34237;BME280;20501;45.956;13.632;2023-03-13T07:19:04;100941.75;;;11.59;49.68
34237;BME280;20501;45.956;13.632;2023-03-13T07:21:29;100939.56;;;10.39;49.64
34237;BME280;20501;45.956;13.632;2023-03-13T07:23:55;100928.56;;;9.75;54.92
34237;BME280;20501;45.956;13.632;2023-03-13T07:26:20;100929.97;;;11.29;51.49
34237;BME280;20501;45.956;13.632;2023-03-13T07:28:46;100930.91;;;10.88;50.57
34237;BME280;20501;45.956;13.632;2023-03-13T07:31:16;100935.56;;;10.86;49.28
34237;BME280;20501;45.956;13.632;2023-03-13T07:33:42;100947.50;;;11.04;52.76
34237;BME280;20501;45.956;13.632;2023-03-13T07:36:09;100930.69;;;11.82;50.49
34237;BME280;20501;45.956;13.632;2023-03-13T07:38:35;100938.34;;;11.67;50.44
34237;BME280;20501;45.956;13.632;2023-03-13T07:41:01;100938.56;;;11.44;51.43
34237;BME280;20501;45.956;13.632;2023-03-13T07:43:26;100941.25;;;9.96;53.71
34237;BME280;20501;45.956;13.632;2023-03-13T07:48:29;100954.72;;;10.73;52.46
34237;BME280;20501;45.956;13.632;2023-03-13T07:50:55;100945.53;;;10.85;53.01
34237;BME280;20501;45.956;13.632;2023-03-13T07:53:21;100943.91;;;9.75;52.08
34237;BME280;20501;45.956;13.632;2023-03-13T07:58:20;100939.94;;;9.90;51.85
34237;BME280;20501;45.956;13.632;2023-03-13T08:00:46;100945.22;;;9.92;55.66
34237;BME280;20501;45.956;13.632;2023-03-13T08:03:11;100930.25;;;9.33;54.47
34237;BME280;20501;45.956;13.632;2023-03-13T08:05:37;100929.59;;;10.28;54.48
34237;BME280;20501;45.956;13.632;2023-03-13T08:08:02;100931.84;;;9.79;54.43
34237;BME280;20501;45.956;13.632;2023-03-13T08:10:29;100931.22;;;9.09;54.51
34237;BME280;20501;45.956;13.632;2023-03-13T08:12:55;100939.78;;;9.37;55.66
34237;BME280;20501;45.956;13.632;2023-03-13T08:15:20;100938.56;;;9.41;54.33
34237;BME280;20501;45.956;13.632;2023-03-13T08:17:50;100940.94;;;9.78;53.39
34237;BME280;20501;45.956;13.632;2023-03-13T08:20:16;100938.75;;;9.72;53.12
34237;BME280;20501;45.956;13.632;2023-03-13T08:22:43;100933.22;;;9.73;53.90
34237;BME280;20501;45.956;13.632;2023-03-13T08:25:11;100928.56;;;10.73;51.52
34237;BME280;20501;45.956;13.632;2023-03-13T08:27:36;100930.38;;;11.75;51.42
34237;BME280;20501;45.956;13.632;2023-03-13T08:30:02;100921.31;;;11.86;49.53
34237;BME280;20501;45.956;13.632;2023-03-13T08:32:27;100913.38;;;11.44;50.65
34237;BME280;20501;45.956;13.632;2023-03-13T08:34:53;100910.91;;;10.15;54.00
34237;BME280;20501;45.956;13.632;2023-03-13T08:37:18;100906.03;;;10.09;53.05
34237;BME280;20501;45.956;13.632;2023-03-13T08:39:43;100918.13;;;10.47;54.30
34237;BME280;20501;45.956;13.632;2023-03-13T08:42:10;100915.16;;;10.93;52.34
34237;BME280;20501;45.956;13.632;2023-03-13T08:44:38;100911.50;;;11.04;51.86
34237;BME280;20501;45.956;13.632;2023-03-13T08:47:07;100897.28;;;12.13;50.79
34237;BME280;20501;45.956;13.632;2023-03-13T08:49:33;100899.13;;;12.22;50.77
34237;BME280;20501;45.956;13.632;2023-03-13T08:51:58;100898.69;;;12.07;50.25
34237;BME280;20501;45.956;13.632;2023-03-13T08:54:25;100901.84;;;10.80;52.15
34237;BME280;20501;45.956;13.632;2023-03-13T08:56:50;100903.06;;;11.28;52.95
34237;BME280;20501;45.956;13.632;2023-03-13T08:59:15;100907.97;;;11.13;52.47
34237;BME280;20501;45.956;13.632;2023-03-13T09:01:41;100909.34;;;10.76;52.00
34237;BME280;20501;45.956;13.632;2023-03-13T09:04:07;100904.75;;;10.67;52.72
34237;BME280;20501;45.956;13.632;2023-03-13T09:06:34;100902.94;;;10.98;52.35
34237;BME280;20501;45.956;13.632;2023-03-13T09:09:00;100895.91;;;10.65;52.75
34237;BME280;20501;45.956;13.632;2023-03-13T09:11:26;100900.66;;;11.04;53.32
34237;BME280;20501;45.956;13.632;2023-03-13T09:13:52;100903.34;;;10.94;52.01
34237;BME280;20501;45.956;13.632;2023-03-13T09:16:23;100892.75;;;11.63;52.93
34237;BME280;20501;45.956;13.632;2023-03-13T09:18:50;100901.63;;;10.93;52.20
34237;BME280;20501;45.956;13.632;2023-03-13T09:21:18;100896.50;;;10.90;53.42
34237;BME280;20501;45.956;13.632;2023-03-13T09:23:44;100897.31;;;11.11;52.24
34237;BME280;20501;45.956;13.632;2023-03-13T09:26:09;100891.69;;;11.34;53.02
34237;BME280;20501;45.956;13.632;2023-03-13T09:28:35;100893.50;;;11.24;51.36
34237;BME280;20501;45.956;13.632;2023-03-13T09:31:14;100896.28;;;11.43;51.04
34237;BME280;20501;45.956;13.632;2023-03-13T09:33:41;100904.25;;;11.45;51.44
34237;BME280;20501;45.956;13.632;2023-03-13T09:36:07;100898.41;;;11.40;51.20
34237;BME280;20501;45.956;13.632;2023-03-13T09:38:33;100895.69;;;12.00;51.52
34237;BME280;20501;45.956;13.632;2023-03-13T09:41:25;100892.28;;;12.08;49.22
34237;BME280;20501;45.956;13.632;2023-03-13T09:44:13;100891.56;;;12.06;49.36
34237;BME280;20501;45.956;13.632;2023-03-13T09:51:49;100886.81;;;12.57;47.62
34237;BME280;20501;45.956;13.632;2023-03-13T09:57:11;100880.28;;;13.25;47.34
34237;BME280;20501;45.956;13.632;2023-03-13T09:59:41;100888.22;;;13.37;45.45
34237;BME280;20501;45.956;13.632;2023-03-13T10:02:34;100882.94;;;13.07;44.91
34237;BME280;20501;45.956;13.632;2023-03-13T10:05:13;100869.78;;;13.12;44.78
34237;BME280;20501;45.956;13.632;2023-03-13T10:07:39;100869.81;;;13.40;44.62
34237;BME280;20501;45.956;13.632;2023-03-13T10:10:17;100872.53;;;13.40;44.99
34237;BME280;20501;45.956;13.632;2023-03-13T10:12:45;100868.22;;;13.38;42.99
34237;BME280;20501;45.956;13.632;2023-03-13T10:15:36;100869.84;;;13.30;44.34
34237;BME280;20501;45.956;13.632;2023-03-13T10:18:16;100868.69;;;13.33;45.59
34237;BME280;20501;45.956;13.632;2023-03-13T10:20:43;100872.78;;;13.47;43.90
34237;BME280;20501;45.956;13.632;2023-03-13T10:23:23;100867.88;;;13.51;44.39
34237;BME280;20501;45.956;13.632;2023-03-13T10:25:52;100866.09;;;13.41;42.11
34237;BME280;20501;45.956;13.632;2023-03-13T10:28:18;100866.25;;;13.30;42.79
34237;BME280;20501;45.956;13.632;2023-03-13T10:31:08;100857.47;;;13.18;41.87
34237;BME280;20501;45.956;13.632;2023-03-13T10:33:37;100862.81;;;13.38;44.09
34237;BME280;20501;45.956;13.632;2023-03-13T10:36:08;100867.84;;;13.60;44.38
34237;BME280;20501;45.956;13.632;2023-03-13T10:38:45;100861.66;;;13.68;42.50
34237;BME280;20501;45.956;13.632;2023-03-13T10:41:37;100859.63;;;13.70;42.42
34237;BME280;20501;45.956;13.632;2023-03-13T10:44:05;100862.19;;;13.72;46.40
34237;BME280;20501;45.956;13.632;2023-03-13T10:46:35;100869.94;;;13.39;42.83
34237;BME280;20501;45.956;13.632;2023-03-13T10:49:16;100867.59;;;13.26;43.07
34237;BME280;20501;45.956;13.632;2023-03-13T10:51:53;100861.78;;;13.39;41.65
34237;BME280;20501;45.956;13.632;2023-03-13T10:54:21;100854.53;;;13.39;42.96
34237;BME280;20501;45.956;13.632;2023-03-13T10:56:47;100872.22;;;13.43;42.63
34237;BME280;20501;45.956;13.632;2023-03-13T10:59:23;100863.88;;;13.27;43.08
34237;BME280;20501;45.956;13.632;2023-03-13T11:01:49;100865.25;;;13.31;43.39
34237;BME280;20501;45.956;13.632;2023-03-13T11:04:30;100859.63;;;13.52;45.64
34237;BME280;20501;45.956;13.632;2023-03-13T11:07:13;100847.19;;;13.68;44.34
34237;BME280;20501;45.956;13.632;2023-03-13T11:09:40;100847.84;;;13.61;43.30
34237;BME280;20501;45.956;13.632;2023-03-13T11:12:16;100850.88;;;13.76;45.49
34237;BME280;20501;45.956;13.632;2023-03-13T11:14:43;100848.38;;;13.65;42.11
34237;BME280;20501;45.956;13.632;2023-03-13T11:17:36;100850.03;;;13.76;42.98
34237;BME280;20501;45.956;13.632;2023-03-13T11:20:24;100854.28;;;13.78;43.24
34237;BME280;20501;45.956;13.632;2023-03-13T11:38:48;100832.56;;;13.97;43.89
34237;BME280;20501;45.956;13.632;2023-03-13T11:44:34;100818.66;;;14.00;43.64
34237;BME280;20501;45.956;13.632;2023-03-13T11:57:50;100788.09;;;13.98;41.82
34237;BME280;20501;45.956;13.632;2023-03-13T12:00:28;100780.31;;;14.03;42.02
34237;BME280;20501;45.956;13.632;2023-03-13T12:03:13;100789.97;;;14.23;42.88
34237;BME280;20501;45.956;13.632;2023-03-13T12:05:46;100786.06;;;14.26;41.38
34237;BME280;20501;45.956;13.632;2023-03-13T12:08:20;100784.44;;;14.33;41.92
34237;BME280;20501;45.956;13.632;2023-03-13T12:11:12;100784.81;;;14.38;41.60
34237;BME280;20501;45.956;13.632;2023-03-13T12:13:45;100785.72;;;14.47;42.18
34237;BME280;20501;45.956;13.632;2023-03-13T12:16:19;100781.72;;;14.33;42.10
34237;BME280;20501;45.956;13.632;2023-03-13T12:18:48;100775.94;;;14.36;43.38
34237;BME280;20501;45.956;13.632;2023-03-13T12:21:35;100774.59;;;14.32;43.03
34237;BME280;20501;45.956;13.632;2023-03-13T12:24:20;100769.09;;;14.24;42.33
34237;BME280;20501;45.956;13.632;2023-03-13T12:32:08;100763.53;;;14.60;42.65
34237;BME280;20501;45.956;13.632;2023-03-13T12:38:05;100738.97;;;14.70;42.47
34237;BME280;20501;45.956;13.632;2023-03-13T12:43:39;100729.19;;;14.59;41.70
34237;BME280;20501;45.956;13.632;2023-03-13T12:46:11;100732.03;;;14.76;42.31
34237;BME280;20501;45.956;13.632;2023-03-13T12:54:20;100698.44;;;14.59;42.25
34237;BME280;20501;45.956;13.632;2023-03-13T12:59:45;100698.97;;;14.62;44.46
34237;BME280;20501;45.956;13.632;2023-03-13T13:02:18;100693.78;;;14.77;42.98
34237;BME280;20501;45.956;13.632;2023-03-13T13:04:46;100682.66;;;14.62;41.74
34237;BME280;20501;45.956;13.632;2023-03-13T13:07:44;100694.78;;;14.68;43.90
34237;BME280;20501;45.956;13.632;2023-03-13T13:10:20;100689.00;;;14.71;43.42
34237;BME280;20501;45.956;13.632;2023-03-13T13:13:15;100696.44;;;14.61;42.98
34237;BME280;20501;45.956;13.632;2023-03-13T13:15:32;100696.75;;;14.58;43.39
34237;BME280;20501;45.956;13.632;2023-03-13T13:18:11;100691.69;;;14.63;43.33
34237;BME280;20501;45.956;13.632;2023-03-13T13:20:46;100688.91;;;14.54;43.21
34237;BME280;20501;45.956;13.632;2023-03-13T13:23:31;100683.75;;;14.43;43.76
34237;BME280;20501;45.956;13.632;2023-03-13T13:36:58;100663.53;;;14.80;44.83
34237;BME280;20501;45.956;13.632;2023-03-13T13:39:42;100653.22;;;15.09;43.76
34237;BME280;20501;45.956;13.632;2023-03-13T13:47:41;100674.88;;;15.60;43.52
34237;BME280;20501;45.956;13.632;2023-03-13T13:50:34;100664.16;;;15.42;43.76
34237;BME280;20501;45.956;13.632;2023-03-13T13:58:59;100654.94;;;15.18;45.12
34237;BME280;20501;45.956;13.632;2023-03-13T14:01:26;100640.31;;;15.11;45.40
34237;BME280;20501;45.956;13.632;2023-03-13T14:03:53;100641.34;;;15.26;44.97
34237;BME280;20501;45.956;13.632;2023-03-13T14:06:26;100641.53;;;15.16;45.01
34237;BME280;20501;45.956;13.632;2023-03-13T14:08:56;100638.75;;;15.00;43.09
34237;BME280;20501;45.956;13.632;2023-03-13T14:11:35;100642.34;;;15.09;44.34
34237;BME280;20501;45.956;13.632;2023-03-13T14:14:17;100633.50;;;15.48;43.25
34237;BME280;20501;45.956;13.632;2023-03-13T14:16:53;100636.72;;;15.52;43.70
34237;BME280;20501;45.956;13.632;2023-03-13T14:19:29;100634.53;;;15.39;43.88
34237;BME280;20501;45.956;13.632;2023-03-13T14:21:59;100627.72;;;15.35;44.10